Time;durP1;ratioP1;P1;durP2;ratioP2;P2;SDS_P1;SDS_P2;PMS_P1;PMS_P2;Temp;Humidity;BMP_temperature;BMP_pressure;BME280_temperature;BME280_humidity;BME280_pressure;Samples;Min_cycle;Max_cycle;Signal;HPM_P1;HPM_P2
2022/10/19 00:00:50;;;;;;;14.55;1.75;;;;;;;;;;5032245;28;20088;-74
2022/10/19 00:03:16;;;;;;;12.35;2.17;;;;;;;;;;5032371;28;20029;-73
2022/10/19 00:05:42;;;;;;;12.73;2.45;;;;;;;;;;5031852;28;20095;-75
2022/10/19 00:08:08;;;;;;;14.27;1.80;;;;;;;;;;5032074;28;20049;-73
2022/10/19 00:10:34;;;;;;;16.60;1.90;;;;;;;;;;5031864;28;20362;-74
2022/10/19 00:13:00;;;;;;;14.98;2.17;;;;;;;;;;5031737;28;20550;-74
2022/10/19 00:15:26;;;;;;;10.10;1.85;;;;;;;;;;5032268;28;20057;-73
2022/10/19 00:17:52;;;;;;;15.38;1.85;;;;;;;;;;5033802;28;20366;-75
2022/10/19 00:20:18;;;;;;;13.02;1.90;;;;;;;;;;5015937;28;20029;-75
2022/10/19 00:22:44;;;;;;;16.05;1.65;;;;;;;;;;5033887;28;20075;-74
2022/10/19 00:25:10;;;;;;;12.52;1.70;;;;;;;;;;5033998;28;20099;-74
2022/10/19 00:27:37;;;;;;;11.68;1.63;;;;;;;;;;5033234;28;20041;-74
2022/10/19 00:30:03;;;;;;;11.38;1.65;;;;;;;;;;5032036;28;20025;-74
2022/10/19 00:32:29;;;;;;;17.52;1.95;;;;;;;;;;5032158;28;20099;-74
2022/10/19 00:34:55;;;;;;;8.88;1.75;;;;;;;;;;5031771;28;20026;-74
2022/10/19 00:37:21;;;;;;;13.23;1.85;;;;;;;;;;5031554;28;20025;-74
2022/10/19 00:39:47;;;;;;;14.00;2.08;;;;;;;;;;5032740;28;20069;-72
2022/10/19 00:42:13;;;;;;;17.40;2.13;;;;;;;;;;5015046;28;20026;-72
2022/10/19 00:44:39;;;;;;;16.92;2.08;;;;;;;;;;5031789;28;20087;-74
2022/10/19 00:47:07;;;;;;;13.43;1.80;;;;;;;;;;5031395;28;20030;-74
2022/10/19 00:49:34;;;;;;;18.75;2.60;;;;;;;;;;5031677;28;20471;-74
2022/10/19 00:52:20;;;;;;;19.58;2.17;;;;;;;;;;5031716;28;20033;-74
2022/10/19 00:54:46;;;;;;;9.85;1.90;;;;;;;;;;5033109;28;20390;-72
2022/10/19 00:57:13;;;;;;;13.07;1.75;;;;;;;;;;5031704;28;20026;-73
2022/10/19 00:59:41;;;;;;;14.60;1.80;;;;;;;;;;5031673;28;20030;-73
2022/10/19 01:02:07;;;;;;;16.15;1.85;;;;;;;;;;5057775;22;20142;-75
2022/10/19 01:04:34;;;;;;;8.77;1.20;;;;;;;;;;5036144;28;20028;-74
2022/10/19 01:07:01;;;;;;;10.15;1.77;;;;;;;;;;5035500;28;20022;-75
2022/10/19 01:09:27;;;;;;;11.02;1.83;;;;;;;;;;5036043;28;20453;-75
2022/10/19 01:12:02;;;;;;;6.30;1.55;;;;;;;;;;5035650;28;20022;-74
2022/10/19 01:14:38;;;;;;;13.90;1.92;;;;;;;;;;5035829;28;20057;-74
2022/10/19 01:17:07;;;;;;;9.55;1.80;;;;;;;;;;5035475;28;20031;-75
2022/10/19 01:19:39;;;;;;;15.15;1.80;;;;;;;;;;5035531;28;20449;-74
2022/10/19 01:22:26;;;;;;;9.95;1.65;;;;;;;;;;5017474;28;20280;-75
2022/10/19 01:24:59;;;;;;;13.13;2.60;;;;;;;;;;5035905;28;20037;-75
2022/10/19 01:27:37;;;;;;;12.15;1.88;;;;;;;;;;5035601;28;20397;-74
2022/10/19 01:30:03;;;;;;;12.68;1.83;;;;;;;;;;5035227;28;20033;-74
2022/10/19 01:32:47;;;;;;;11.55;1.60;;;;;;;;;;5017728;28;20021;-74
2022/10/19 01:35:23;;;;;;;12.63;1.98;;;;;;;;;;5035973;28;20398;-74
2022/10/19 01:37:52;;;;;;;9.88;1.98;;;;;;;;;;5035622;28;20427;-73
2022/10/19 01:40:38;;;;;;;14.60;1.90;;;;;;;;;;5017440;28;20022;-74
2022/10/19 01:43:10;;;;;;;11.82;2.08;;;;;;;;;;5017082;28;20028;-74
2022/10/19 01:45:40;;;;;;;10.85;1.70;;;;;;;;;;5040944;28;20033;-74
2022/10/19 01:48:18;;;;;;;9.35;1.77;;;;;;;;;;5043675;28;20033;-76
2022/10/19 01:50:50;;;;;;;13.07;1.83;;;;;;;;;;5036465;28;20091;-75
2022/10/19 01:53:17;;;;;;;11.18;2.38;;;;;;;;;;5036574;28;20028;-75
2022/10/19 01:55:44;;;;;;;17.95;4.22;;;;;;;;;;5036526;28;20108;-75
2022/10/19 01:58:12;;;;;;;11.75;1.95;;;;;;;;;;5017800;28;20055;-74
2022/10/19 02:00:41;;;;;;;13.50;1.83;;;;;;;;;;5035184;28;20017;-74
2022/10/19 02:03:08;;;;;;;12.52;1.52;;;;;;;;;;5035631;28;20032;-74
2022/10/19 02:05:35;;;;;;;13.73;1.67;;;;;;;;;;5034682;28;20034;-74
2022/10/19 02:08:07;;;;;;;16.00;1.88;;;;;;;;;;5034640;28;20036;-74
2022/10/19 02:10:34;;;;;;;9.23;1.38;;;;;;;;;;5034614;28;20026;-74
2022/10/19 02:13:02;;;;;;;14.45;1.95;;;;;;;;;;5033778;28;20040;-74
2022/10/19 02:15:29;;;;;;;11.35;1.83;;;;;;;;;;5034865;28;20021;-76
2022/10/19 02:17:58;;;;;;;11.75;2.00;;;;;;;;;;5035932;28;20036;-74
2022/10/19 02:20:24;;;;;;;13.07;2.13;;;;;;;;;;5037981;28;20025;-76
2022/10/19 02:22:50;;;;;;;15.27;1.85;;;;;;;;;;5041608;28;20036;-75
2022/10/19 02:25:16;;;;;;;14.98;2.33;;;;;;;;;;5022531;28;20108;-75
2022/10/19 02:27:42;;;;;;;16.13;2.05;;;;;;;;;;5035376;28;20049;-75
2022/10/19 02:30:10;;;;;;;12.93;1.95;;;;;;;;;;5034744;28;20032;-75
2022/10/19 02:32:36;;;;;;;28.75;3.30;;;;;;;;;;5034205;28;20088;-75
2022/10/19 02:35:02;;;;;;;15.77;2.63;;;;;;;;;;5034433;28;20025;-75
2022/10/19 02:37:28;;;;;;;15.00;2.17;;;;;;;;;;5016551;28;20025;-75
2022/10/19 02:39:54;;;;;;;10.75;1.90;;;;;;;;;;5034350;28;20061;-74
2022/10/19 02:42:40;;;;;;;15.27;1.80;;;;;;;;;;5016445;28;20383;-74
2022/10/19 02:45:09;;;;;;;18.38;2.00;;;;;;;;;;5015916;28;20029;-74
2022/10/19 02:47:36;;;;;;;14.18;2.15;;;;;;;;;;5034018;28;20037;-74
2022/10/19 02:50:06;;;;;;;16.75;2.13;;;;;;;;;;5015938;28;20029;-74
2022/10/19 02:52:32;;;;;;;13.02;1.90;;;;;;;;;;5033553;28;20028;-75
2022/10/19 02:54:59;;;;;;;14.65;2.00;;;;;;;;;;5034309;28;20029;-79
2022/10/19 02:57:25;;;;;;;12.00;2.33;;;;;;;;;;5035678;28;20105;-75
2022/10/19 02:59:51;;;;;;;22.77;4.57;;;;;;;;;;5031198;28;20500;-75
2022/10/19 03:02:18;;;;;;;18.90;3.85;;;;;;;;;;5033961;28;20034;-75
2022/10/19 03:04:44;;;;;;;13.88;2.50;;;;;;;;;;5015727;28;20056;-75
2022/10/19 03:07:12;;;;;;;14.20;2.33;;;;;;;;;;5033389;28;20505;-75
2022/10/19 03:09:38;;;;;;;21.20;2.35;;;;;;;;;;5033871;28;20101;-74
2022/10/19 03:12:04;;;;;;;13.00;1.77;;;;;;;;;;5033424;28;20415;-74
2022/10/19 03:14:30;;;;;;;14.73;1.40;;;;;;;;;;5033476;28;20440;-74
2022/10/19 03:16:56;;;;;;;20.20;2.45;;;;;;;;;;5034769;28;20022;-74
2022/10/19 03:19:22;;;;;;;16.90;2.13;;;;;;;;;;5035173;28;20030;-74
2022/10/19 03:21:48;;;;;;;15.63;2.97;;;;;;;;;;5015547;28;20071;-74
2022/10/19 03:24:14;;;;;;;12.57;2.22;;;;;;;;;;5015359;28;20025;-74
2022/10/19 03:26:39;;;;;;;13.23;1.85;;;;;;;;;;5032812;28;20026;-75
2022/10/19 03:29:05;;;;;;;15.85;1.98;;;;;;;;;;5032978;28;20033;-74
2022/10/19 03:31:31;;;;;;;16.65;2.17;;;;;;;;;;5033525;28;20032;-75
2022/10/19 03:33:57;;;;;;;18.63;1.90;;;;;;;;;;5032508;28;20056;-75
2022/10/19 03:36:24;;;;;;;14.55;1.88;;;;;;;;;;5032180;28;20494;-75
2022/10/19 03:38:54;;;;;;;18.80;2.70;;;;;;;;;;5032217;28;20032;-75
2022/10/19 03:41:21;;;;;;;13.68;2.70;;;;;;;;;;5032215;28;20033;-74
2022/10/19 03:43:47;;;;;;;14.20;2.38;;;;;;;;;;5031252;28;20058;-74
2022/10/19 03:46:13;;;;;;;13.52;2.10;;;;;;;;;;5032187;28;20655;-74
2022/10/19 03:48:40;;;;;;;11.77;1.55;;;;;;;;;;5031843;28;20025;-74
2022/10/19 03:51:13;;;;;;;18.90;2.38;;;;;;;;;;5031897;28;20028;-74
2022/10/19 03:53:39;;;;;;;10.63;1.73;;;;;;;;;;5033334;28;20025;-74
2022/10/19 03:56:12;;;;;;;10.68;2.00;;;;;;;;;;5041273;28;20022;-75
2022/10/19 03:58:39;;;;;;;16.10;2.20;;;;;;;;;;5041585;28;20033;-76
2022/10/19 04:01:09;;;;;;;16.15;2.35;;;;;;;;;;5039676;28;20029;-74
2022/10/19 04:03:35;;;;;;;12.70;1.83;;;;;;;;;;5044266;28;20135;-74
2022/10/19 04:06:02;;;;;;;14.32;2.20;;;;;;;;;;5047016;28;20026;-75
2022/10/19 04:08:28;;;;;;;19.88;2.92;;;;;;;;;;5042730;28;20379;-74
2022/10/19 04:10:58;;;;;;;10.63;1.52;;;;;;;;;;5044953;28;20036;-74
2022/10/19 04:13:24;;;;;;;13.68;2.25;;;;;;;;;;5025044;28;20026;-76
2022/10/19 04:15:50;;;;;;;13.23;2.33;;;;;;;;;;5041431;28;20028;-76
2022/10/19 04:18:16;;;;;;;10.80;1.65;;;;;;;;;;5037127;28;20025;-75
2022/10/19 04:20:42;;;;;;;13.10;2.13;;;;;;;;;;5036373;28;20105;-75
2022/10/19 04:23:08;;;;;;;16.77;2.38;;;;;;;;;;5038013;28;20036;-76
2022/10/19 04:25:34;;;;;;;14.55;2.40;;;;;;;;;;5039241;28;20026;-75
2022/10/19 04:28:00;;;;;;;12.52;1.70;;;;;;;;;;5038815;28;20478;-75
2022/10/19 04:30:26;;;;;;;14.32;2.20;;;;;;;;;;5035652;28;20112;-76
2022/10/19 04:32:52;;;;;;;20.60;2.53;;;;;;;;;;5039832;28;20025;-76
2022/10/19 04:35:18;;;;;;;17.88;2.78;;;;;;;;;;5025286;28;20021;-75
2022/10/19 04:37:44;;;;;;;11.98;2.08;;;;;;;;;;5046576;28;20088;-75
2022/10/19 04:40:11;;;;;;;14.23;2.40;;;;;;;;;;5046864;28;20029;-74
2022/10/19 04:42:36;;;;;;;12.63;1.80;;;;;;;;;;5026866;28;20375;-75
2022/10/19 04:45:03;;;;;;;9.95;1.98;;;;;;;;;;5046886;28;20121;-75
2022/10/19 04:47:29;;;;;;;12.40;2.80;;;;;;;;;;5048910;28;20033;-75
2022/10/19 04:49:55;;;;;;;10.75;2.17;;;;;;;;;;5033659;28;20079;-75
2022/10/19 04:52:21;;;;;;;17.30;2.13;;;;;;;;;;5050509;28;20025;-76
2022/10/19 04:54:47;;;;;;;14.45;2.78;;;;;;;;;;5030377;28;20447;-76
2022/10/19 04:57:13;;;;;;;13.27;2.22;;;;;;;;;;5044193;28;20040;-76
2022/10/19 04:59:39;;;;;;;16.10;2.53;;;;;;;;;;5046033;28;20033;-75
2022/10/19 05:02:05;;;;;;;11.38;2.05;;;;;;;;;;5044117;28;20042;-75
2022/10/19 05:04:31;;;;;;;14.98;2.65;;;;;;;;;;5048128;28;20037;-75
2022/10/19 05:06:57;;;;;;;21.50;2.90;;;;;;;;;;5048441;28;20029;-75
2022/10/19 05:09:23;;;;;;;13.20;1.83;;;;;;;;;;5024795;28;20121;-75
2022/10/19 05:11:49;;;;;;;22.05;2.90;;;;;;;;;;5036726;28;20032;-75
2022/10/19 05:14:15;;;;;;;10.95;1.70;;;;;;;;;;5020208;28;20014;-74
2022/10/19 05:16:41;;;;;;;14.27;2.45;;;;;;;;;;5039153;28;20067;-75
2022/10/19 05:19:12;;;;;;;11.90;2.13;;;;;;;;;;5040435;28;20049;-75
2022/10/19 05:21:38;;;;;;;16.25;2.15;;;;;;;;;;5041185;28;20026;-76
2022/10/19 05:24:04;;;;;;;15.00;2.15;;;;;;;;;;5040530;28;20394;-74
2022/10/19 05:26:30;;;;;;;16.42;2.53;;;;;;;;;;5025730;28;20032;-75
2022/10/19 05:28:59;;;;;;;14.50;2.35;;;;;;;;;;5040022;28;20025;-74
2022/10/19 05:31:26;;;;;;;14.80;2.80;;;;;;;;;;5039064;28;20498;-73
2022/10/19 05:33:52;;;;;;;15.15;2.38;;;;;;;;;;5019205;28;20108;-75
2022/10/19 05:36:19;;;;;;;14.43;2.60;;;;;;;;;;5035701;28;20517;-74
2022/10/19 05:38:46;;;;;;;15.65;3.15;;;;;;;;;;5036561;28;20022;-74
2022/10/19 05:41:13;;;;;;;10.52;2.50;;;;;;;;;;5002953;28;20043;-74
2022/10/19 05:43:39;;;;;;;30.77;9.07;;;;;;;;;;5037282;28;20083;-75
2022/10/19 05:46:06;;;;;;;18.95;5.15;;;;;;;;;;5017960;28;20029;-74
2022/10/19 05:48:33;;;;;;;8.95;2.30;;;;;;;;;;5018639;28;20526;-76
2022/10/19 05:51:00;;;;;;;19.35;3.10;;;;;;;;;;5037872;28;20017;-75
2022/10/19 05:53:26;;;;;;;16.52;2.45;;;;;;;;;;5035812;28;20026;-75
2022/10/19 05:55:52;;;;;;;13.45;2.17;;;;;;;;;;5035828;28;20495;-75
2022/10/19 05:58:18;;;;;;;13.45;1.90;;;;;;;;;;5035354;28;20030;-75
2022/10/19 06:00:50;;;;;;;15.30;2.30;;;;;;;;;;5035602;28;20033;-75
2022/10/19 06:03:16;;;;;;;16.83;2.47;;;;;;;;;;5035508;28;20399;-74
2022/10/19 06:05:42;;;;;;;13.75;2.95;;;;;;;;;;5035982;28;20147;-75
2022/10/19 06:08:08;;;;;;;19.27;4.57;;;;;;;;;;5035677;28;20049;-75
2022/10/19 06:10:34;;;;;;;13.43;3.03;;;;;;;;;;5038446;28;20037;-77
2022/10/19 06:13:00;;;;;;;17.63;2.53;;;;;;;;;;5035301;28;20025;-75
2022/10/19 06:15:26;;;;;;;11.48;2.08;;;;;;;;;;5034970;28;20063;-75
2022/10/19 06:17:52;;;;;;;12.98;2.40;;;;;;;;;;5035341;28;20049;-74
2022/10/19 06:20:18;;;;;;;15.68;2.40;;;;;;;;;;5035692;28;20433;-74
2022/10/19 06:22:44;;;;;;;15.95;2.95;;;;;;;;;;5037368;28;20049;-74
2022/10/19 06:25:10;;;;;;;13.52;2.65;;;;;;;;;;5037124;28;20041;-76
2022/10/19 06:27:36;;;;;;;12.85;2.05;;;;;;;;;;5020172;28;20021;-76
2022/10/19 06:30:02;;;;;;;17.23;2.95;;;;;;;;;;5042439;28;20022;-77
2022/10/19 06:32:28;;;;;;;17.10;2.88;;;;;;;;;;5041398;28;20025;-74
2022/10/19 06:34:54;;;;;;;18.70;2.58;;;;;;;;;;5041822;28;20033;-75
2022/10/19 06:37:20;;;;;;;20.92;3.53;;;;;;;;;;5024471;28;20082;-75
2022/10/19 06:39:46;;;;;;;15.13;2.08;;;;;;;;;;5047738;28;20037;-74
2022/10/19 06:42:12;;;;;;;16.98;2.60;;;;;;;;;;5047146;28;20474;-75
2022/10/19 06:44:38;;;;;;;14.18;2.88;;;;;;;;;;5048786;28;20029;-75
2022/10/19 06:47:04;;;;;;;25.17;3.22;;;;;;;;;;5049904;28;20040;-75
2022/10/19 06:49:30;;;;;;;25.23;7.18;;;;;;;;;;5038333;28;20309;-75
2022/10/19 06:51:56;;;;;;;31.60;8.77;;;;;;;;;;5034037;28;20027;-75
2022/10/19 06:54:24;;;;;;;28.65;8.20;;;;;;;;;;5016309;28;20488;-74
2022/10/19 06:56:50;;;;;;;42.38;9.52;;;;;;;;;;5016489;28;20026;-76
2022/10/19 06:59:16;;;;;;;27.33;6.05;;;;;;;;;;5033890;28;20434;-76
2022/10/19 07:01:42;;;;;;;26.92;6.68;;;;;;;;;;5034534;28;20034;-75
2022/10/19 07:04:08;;;;;;;39.50;9.40;;;;;;;;;;5015953;28;20041;-76
2022/10/19 07:06:34;;;;;;;36.47;9.60;;;;;;;;;;5017502;28;20037;-74
2022/10/19 07:09:01;;;;;;;38.80;10.07;;;;;;;;;;5019222;28;20087;-74
2022/10/19 07:11:27;;;;;;;44.60;12.88;;;;;;;;;;5021132;28;20026;-76
2022/10/19 07:13:53;;;;;;;25.45;6.97;;;;;;;;;;5036654;28;20028;-74
2022/10/19 07:16:20;;;;;;;19.95;4.43;;;;;;;;;;5019523;28;20053;-77
2022/10/19 07:18:46;;;;;;;11.65;2.17;;;;;;;;;;5036587;28;20030;-74
2022/10/19 07:21:13;;;;;;;19.58;4.13;;;;;;;;;;5022631;28;20021;-75
2022/10/19 07:23:40;;;;;;;19.83;4.18;;;;;;;;;;5040451;28;20018;-75
2022/10/19 07:26:08;;;;;;;19.60;2.88;;;;;;;;;;5042918;28;20021;-75
2022/10/19 07:28:34;;;;;;;20.45;3.22;;;;;;;;;;5041530;28;20036;-75
2022/10/19 07:31:03;;;;;;;24.67;3.10;;;;;;;;;;5040091;28;20092;-75
2022/10/19 07:33:29;;;;;;;20.40;2.90;;;;;;;;;;5033607;28;20056;-75
2022/10/19 07:35:59;;;;;;;17.27;2.47;;;;;;;;;;5033164;28;20482;-73
2022/10/19 07:38:25;;;;;;;26.75;3.55;;;;;;;;;;5033527;28;20049;-75
2022/10/19 07:40:51;;;;;;;15.05;2.60;;;;;;;;;;5035183;28;20029;-73
2022/10/19 07:43:17;;;;;;;16.83;2.50;;;;;;;;;;5033018;28;20447;-73
2022/10/19 07:45:43;;;;;;;18.55;2.63;;;;;;;;;;5032805;28;20390;-75
2022/10/19 07:48:09;;;;;;;19.00;3.17;;;;;;;;;;5035484;28;20057;-75
2022/10/19 07:50:35;;;;;;;15.80;3.30;;;;;;;;;;5033272;28;20036;-75
2022/10/19 07:53:04;;;;;;;21.38;3.28;;;;;;;;;;5032783;28;20021;-75
2022/10/19 07:55:29;;;;;;;12.98;2.17;;;;;;;;;;5024732;28;20041;-74
2022/10/19 07:58:00;;;;;;;21.10;3.17;;;;;;;;;;5050026;28;20159;-74
2022/10/19 08:00:26;;;;;;;16.48;2.67;;;;;;;;;;5034848;28;20022;-75
2022/10/19 08:02:52;;;;;;;24.58;3.38;;;;;;;;;;5033244;28;20029;-75
2022/10/19 08:05:18;;;;;;;16.48;2.90;;;;;;;;;;5033438;28;20504;-75
2022/10/19 08:07:45;;;;;;;20.83;2.95;;;;;;;;;;5036165;28;20364;-74
2022/10/19 08:10:11;;;;;;;25.75;2.88;;;;;;;;;;5039961;28;20132;-75
2022/10/19 08:12:37;;;;;;;22.13;2.88;;;;;;;;;;5049167;28;20029;-74
2022/10/19 08:15:05;;;;;;;20.23;2.50;;;;;;;;;;5031877;28;20009;-76
2022/10/19 08:17:32;;;;;;;17.40;3.40;;;;;;;;;;5047004;28;20497;-73
2022/10/19 08:19:58;;;;;;;22.60;3.35;;;;;;;;;;5044005;28;20033;-72
2022/10/19 08:22:24;;;;;;;10.60;2.28;;;;;;;;;;5031669;28;20114;-74
2022/10/19 08:24:49;;;;;;;17.40;2.90;;;;;;;;;;5031161;28;20183;-75
2022/10/19 08:27:15;;;;;;;12.00;2.53;;;;;;;;;;5030904;28;20120;-76
2022/10/19 08:29:41;;;;;;;14.82;2.45;;;;;;;;;;5031389;28;20033;-76
2022/10/19 08:32:07;;;;;;;20.20;4.88;;;;;;;;;;5032078;28;20029;-76
2022/10/19 08:34:33;;;;;;;18.70;3.42;;;;;;;;;;5031604;28;20026;-75
2022/10/19 08:37:01;;;;;;;15.27;2.67;;;;;;;;;;5031198;28;20021;-74
2022/10/19 08:39:27;;;;;;;13.27;2.80;;;;;;;;;;5031353;28;20029;-76
2022/10/19 08:41:53;;;;;;;15.23;2.97;;;;;;;;;;5014458;28;20120;-75
2022/10/19 08:44:34;;;;;;;16.70;2.83;;;;;;;;;;5032795;28;20466;-74
2022/10/19 08:47:05;;;;;;;15.60;2.65;;;;;;;;;;5037519;28;20030;-76
2022/10/19 08:49:31;;;;;;;14.80;2.60;;;;;;;;;;5045091;28;20105;-74
2022/10/19 08:52:00;;;;;;;13.40;2.33;;;;;;;;;;5041628;28;20081;-75
2022/10/19 08:54:37;;;;;;;13.45;2.88;;;;;;;;;;5048089;28;20025;-74
2022/10/19 08:57:23;;;;;;;11.85;2.15;;;;;;;;;;5036103;28;20029;-75
2022/10/19 08:59:58;;;;;;;9.93;2.47;;;;;;;;;;5035668;28;20022;-77
2022/10/19 09:02:34;;;;;;;16.88;3.42;;;;;;;;;;5015690;28;20437;-76
2022/10/19 09:05:03;;;;;;;15.13;3.95;;;;;;;;;;5015116;28;20514;-76
2022/10/19 09:07:31;;;;;;;10.85;2.40;;;;;;;;;;5014327;28;20029;-71
2022/10/19 09:10:03;;;;;;;10.57;2.38;;;;;;;;;;5031995;28;20079;-74
2022/10/19 09:12:52;;;;;;;19.25;4.70;;;;;;;;;;5032325;28;20025;-75
2022/10/19 09:15:20;;;;;;;12.70;2.50;;;;;;;;;;5032020;28;20025;-74
2022/10/19 09:17:46;;;;;;;42.63;20.02;;;;;;;;;;5031550;28;20537;-74
2022/10/19 09:20:20;;;;;;;10.52;2.90;;;;;;;;;;5014544;28;20025;-75
2022/10/19 09:22:48;;;;;;;18.02;3.17;;;;;;;;;;5035698;28;20021;-75
2022/10/19 09:25:20;;;;;;;13.68;2.60;;;;;;;;;;5035671;28;20052;-76
2022/10/19 09:27:48;;;;;;;16.48;2.50;;;;;;;;;;5018007;28;20026;-74
2022/10/19 09:30:22;;;;;;;19.27;2.97;;;;;;;;;;5036009;28;20072;-75
2022/10/19 09:32:58;;;;;;;13.68;2.42;;;;;;;;;;5035657;28;20063;-75
2022/10/19 09:35:29;;;;;;;17.85;2.85;;;;;;;;;;5034853;28;20029;-74
2022/10/19 09:37:56;;;;;;;18.25;2.67;;;;;;;;;;5036109;28;20392;-75
2022/10/19 09:40:23;;;;;;;12.73;2.17;;;;;;;;;;5035119;28;20025;-74
2022/10/19 09:42:55;;;;;;;10.98;2.60;;;;;;;;;;5034905;28;20033;-72
2022/10/19 09:45:40;;;;;;;16.15;3.03;;;;;;;;;;5034745;28;20033;-74
2022/10/19 09:48:13;;;;;;;13.07;2.40;;;;;;;;;;5035655;28;20056;-75
2022/10/19 09:50:42;;;;;;;14.63;2.70;;;;;;;;;;5017805;28;20116;-74
2022/10/19 09:53:15;;;;;;;14.30;2.80;;;;;;;;;;5035061;28;20032;-73
2022/10/19 09:55:42;;;;;;;12.02;2.50;;;;;;;;;;5036205;28;20025;-74
2022/10/19 09:58:14;;;;;;;11.38;2.20;;;;;;;;;;5036486;28;20021;-75
2022/10/19 10:00:44;;;;;;;10.05;2.40;;;;;;;;;;5019966;28;20250;-75
2022/10/19 10:03:22;;;;;;;13.15;2.63;;;;;;;;;;5041639;28;20033;-75
2022/10/19 10:05:48;;;;;;;18.58;2.70;;;;;;;;;;5021672;28;20034;-74
2022/10/19 10:08:16;;;;;;;12.85;1.88;;;;;;;;;;5036552;28;20060;-75
2022/10/19 10:10:44;;;;;;;17.92;2.55;;;;;;;;;;5035927;28;20029;-73
2022/10/19 10:13:20;;;;;;;21.63;2.63;;;;;;;;;;5038264;28;20025;-75
2022/10/19 10:15:48;;;;;;;17.70;2.72;;;;;;;;;;5037926;28;20097;-75
2022/10/19 10:18:15;;;;;;;13.40;1.85;;;;;;;;;;5046170;28;20088;-75
2022/10/19 10:21:00;;;;;;;15.30;2.65;;;;;;;;;;5044346;28;20053;-75
2022/10/19 10:23:30;;;;;;;10.23;2.15;;;;;;;;;;5039038;28;20029;-76
2022/10/19 10:25:56;;;;;;;12.85;3.05;;;;;;;;;;5039305;28;20051;-76
2022/10/19 10:28:24;;;;;;;15.45;2.58;;;;;;;;;;5038632;28;20048;-75
2022/10/19 10:30:53;;;;;;;14.00;2.38;;;;;;;;;;5035986;28;20025;-75
2022/10/19 10:33:27;;;;;;;13.23;2.70;;;;;;;;;;5035250;28;20080;-75
2022/10/19 10:36:00;;;;;;;10.73;2.35;;;;;;;;;;5038379;28;20026;-74
2022/10/19 10:38:28;;;;;;;16.17;2.80;;;;;;;;;;5049558;28;20104;-75
2022/10/19 10:40:57;;;;;;;10.98;2.22;;;;;;;;;;5045079;28;20322;-74
2022/10/19 10:43:28;;;;;;;7.78;2.15;;;;;;;;;;5034877;28;20037;-75
2022/10/19 10:45:59;;;;;;;12.10;2.70;;;;;;;;;;5034410;28;20031;-75
2022/10/19 10:48:30;;;;;;;9.77;2.08;;;;;;;;;;5033928;28;20105;-74
2022/10/19 10:50:56;;;;;;;12.93;2.40;;;;;;;;;;5034049;28;20025;-75
2022/10/19 10:53:30;;;;;;;11.50;2.55;;;;;;;;;;5033687;28;20026;-75
2022/10/19 10:55:56;;;;;;;10.98;2.70;;;;;;;;;;5033869;28;20032;-74
2022/10/19 10:58:48;;;;;;;12.07;2.95;;;;;;;;;;5034186;28;20223;-74
2022/10/19 11:01:29;;;;;;;11.50;2.40;;;;;;;;;;5031805;28;20119;-74
2022/10/19 11:04:00;;;;;;;15.77;2.80;;;;;;;;;;5034439;28;20104;-74
2022/10/19 11:06:26;;;;;;;13.90;2.55;;;;;;;;;;5016359;28;20036;-76
2022/10/19 11:08:58;;;;;;;15.93;3.00;;;;;;;;;;5035312;28;20034;-75
2022/10/19 11:11:30;;;;;;;17.10;3.83;;;;;;;;;;5035967;28;20018;-75
2022/10/19 11:13:55;;;;;;;23.27;5.85;;;;;;;;;;5015779;28;20514;-75
2022/10/19 11:16:24;;;;;;;17.30;4.82;;;;;;;;;;5033161;28;20097;-76
2022/10/19 11:18:53;;;;;;;14.73;3.17;;;;;;;;;;5033998;28;20049;-77
2022/10/19 11:21:21;;;;;;;16.90;6.07;;;;;;;;;;5033399;28;20136;-73
2022/10/19 11:23:54;;;;;;;11.73;3.00;;;;;;;;;;5015173;28;20494;-75
2022/10/19 11:26:35;;;;;;;14.77;2.28;;;;;;;;;;5033238;28;20030;-75
2022/10/19 11:29:07;;;;;;;12.32;2.90;;;;;;;;;;5034692;28;20037;-76
2022/10/19 11:31:36;;;;;;;10.30;2.50;;;;;;;;;;5034196;28;20033;-75
2022/10/19 11:34:24;;;;;;;14.38;2.83;;;;;;;;;;5034190;28;20282;-75
2022/10/19 11:36:56;;;;;;;22.17;5.13;;;;;;;;;;5035898;28;20033;-77
2022/10/19 11:39:25;;;;;;;13.30;3.83;;;;;;;;;;5034168;28;20470;-75
2022/10/19 11:42:08;;;;;;;9.35;2.92;;;;;;;;;;5034888;28;20049;-75
2022/10/19 11:44:55;;;;;;;7.80;2.33;;;;;;;;;;5028299;28;20026;-75
2022/10/19 11:47:28;;;;;;;9.20;2.38;;;;;;;;;;5036375;28;20021;-75
2022/10/19 11:50:02;;;;;;;9.70;3.40;;;;;;;;;;5015212;28;20509;-75
2022/10/19 11:52:40;;;;;;;10.77;2.65;;;;;;;;;;5033029;28;20482;-75
2022/10/19 11:55:32;;;;;;;9.32;1.80;;;;;;;;;;5033188;28;20025;-74
2022/10/19 11:58:17;;;;;;;10.05;1.80;;;;;;;;;;5031382;28;20069;-77
2022/10/19 12:01:04;;;;;;;8.85;1.70;;;;;;;;;;5033318;28;20171;-76
2022/10/19 12:03:48;;;;;;;10.95;2.10;;;;;;;;;;5035806;28;20025;-77
2022/10/19 12:06:33;;;;;;;7.82;2.10;;;;;;;;;;5035598;28;20021;-77
2022/10/19 12:08:59;;;;;;;;;;;;;;;;;;5035221;28;20496;-77
2022/10/19 12:11:34;;;;;;;5.53;2.13;;;;;;;;;;5034973;28;19905;-79
2022/10/19 12:14:02;;;;;;;10.07;2.38;;;;;;;;;;5034990;28;20172;-76
2022/10/19 12:16:38;;;;;;;11.13;2.20;;;;;;;;;;5035317;28;20036;-76
2022/10/19 12:19:05;;;;;;;7.88;1.85;;;;;;;;;;5036865;28;20502;-76
2022/10/19 12:21:34;;;;;;;7.80;1.67;;;;;;;;;;5035662;28;20025;-76
2022/10/19 12:24:02;;;;;;;12.30;2.63;;;;;;;;;;5035756;28;20022;-79
2022/10/19 12:26:30;;;;;;;9.68;1.73;;;;;;;;;;5035175;28;20020;-76
2022/10/19 12:29:00;;;;;;;6.47;1.80;;;;;;;;;;5040701;28;20401;-77
2022/10/19 12:31:26;;;;;;;7.85;1.70;;;;;;;;;;5021185;28;20577;-77
2022/10/19 12:34:11;;;;;;;7.07;1.80;;;;;;;;;;5034629;28;20443;-77
2022/10/19 12:36:42;;;;;;;12.02;2.58;;;;;;;;;;5038894;28;20032;-77
2022/10/19 12:39:27;;;;;;;6.80;2.10;;;;;;;;;;5038187;28;20136;-76
2022/10/19 12:42:02;;;;;;;7.15;1.50;;;;;;;;;;5037691;28;20036;-76
2022/10/19 12:44:46;;;;;;;4.72;1.63;;;;;;;;;;5038829;28;20080;-77
2022/10/19 12:47:19;;;;;;;4.65;1.83;;;;;;;;;;5037176;28;20376;-76
2022/10/19 12:49:47;;;;;;;7.15;1.52;;;;;;;;;;5035622;28;20030;-77
2022/10/19 12:52:16;;;;;;;15.48;9.50;;;;;;;;;;5036679;28;20045;-75
2022/10/19 12:54:42;;;;;;;9.82;2.80;;;;;;;;;;5022070;28;20022;-75
2022/10/19 12:57:22;;;;;;;12.52;2.67;;;;;;;;;;5036727;28;20022;-77
2022/10/19 12:59:58;;;;;;;6.78;1.80;;;;;;;;;;5041707;28;20033;-77
2022/10/19 13:02:26;;;;;;;6.55;1.50;;;;;;;;;;5062152;22;20489;-75
2022/10/19 13:04:52;;;;;;;4.72;1.42;;;;;;;;;;5035893;28;20394;-75
2022/10/19 13:07:18;;;;;;;5.03;1.20;;;;;;;;;;5035961;28;20033;-75
2022/10/19 13:09:46;;;;;;;3.80;1.10;;;;;;;;;;5017500;28;20040;-76
2022/10/19 13:12:15;;;;;;;7.20;1.60;;;;;;;;;;5019276;28;20025;-79
2022/10/19 13:14:55;;;;;;;5.90;1.25;;;;;;;;;;5037478;28;20071;-75
2022/10/19 13:17:27;;;;;;;8.65;1.83;;;;;;;;;;5036526;28;20113;-74
2022/10/19 13:20:13;;;;;;;7.32;2.40;;;;;;;;;;5034802;28;20032;-74
2022/10/19 13:22:39;;;;;;;7.13;1.40;;;;;;;;;;5035366;28;20022;-76
2022/10/19 13:25:17;;;;;;;15.32;2.80;;;;;;;;;;5035103;28;20060;-76
2022/10/19 13:27:44;;;;;;;5.70;1.30;;;;;;;;;;5037129;28;20375;-76
2022/10/19 13:30:45;;;;;;;5.60;1.38;;;;;;;;;;5036621;28;20385;-77
2022/10/19 13:33:23;;;;;;;5.35;1.40;;;;;;;;;;4954583;29;20312;-76
2022/10/19 13:35:58;;;;;;;7.30;1.70;;;;;;;;;;5026159;28;20045;-75
2022/10/19 13:38:28;;;;;;;9.88;1.70;;;;;;;;;;5018955;28;20026;-76
2022/10/19 13:40:54;;;;;;;6.75;1.48;;;;;;;;;;5037006;28;20033;-77
2022/10/19 13:43:23;;;;;;;10.45;2.03;;;;;;;;;;5037587;28;20079;-77
2022/10/19 13:46:07;;;;;;;6.45;2.45;;;;;;;;;;5038995;28;20030;-76
2022/10/19 13:48:40;;;;;;;5.13;1.52;;;;;;;;;;5038503;28;20048;-76
2022/10/19 13:51:21;;;;;;;5.45;1.67;;;;;;;;;;5035946;28;20032;-77
2022/10/19 13:54:06;;;;;;;5.85;1.75;;;;;;;;;;5035284;28;20057;-77
2022/10/19 13:56:50;;;;;;;6.80;1.98;;;;;;;;;;5035379;28;20037;-74
2022/10/19 13:59:26;;;;;;;4.55;1.38;;;;;;;;;;5035684;28;20025;-77
2022/10/19 14:01:55;;;;;;;8.10;2.97;;;;;;;;;;5035744;28;20025;-78
2022/10/19 14:04:39;;;;;;;3.92;1.50;;;;;;;;;;5036577;28;20053;-76
2022/10/19 14:07:11;;;;;;;8.90;2.08;;;;;;;;;;5035076;28;20025;-78
2022/10/19 14:09:37;;;;;;;7.38;2.10;;;;;;;;;;5036102;28;20026;-77
2022/10/19 14:12:23;;;;;;;8.23;1.48;;;;;;;;;;5036711;28;20080;-77
2022/10/19 14:14:52;;;;;;;8.55;1.55;;;;;;;;;;5016785;28;20029;-76
2022/10/19 14:17:32;;;;;;;8.73;1.75;;;;;;;;;;5034307;28;20419;-73
2022/10/19 14:19:58;;;;;;;13.60;2.40;;;;;;;;;;5035721;28;20025;-72
2022/10/19 14:22:29;;;;;;;8.82;2.50;;;;;;;;;;5033223;28;20056;-76
2022/10/19 14:25:01;;;;;;;6.05;1.75;;;;;;;;;;5038299;28;20029;-77
2022/10/19 14:27:27;;;;;;;10.35;1.40;;;;;;;;;;5017341;28;20025;-73
2022/10/19 14:29:53;;;;;;;3.60;1.20;;;;;;;;;;5034634;28;20028;-75
2022/10/19 14:32:23;;;;;;;10.18;1.30;;;;;;;;;;5034047;28;20433;-73
2022/10/19 14:34:49;;;;;;;3.78;1.40;;;;;;;;;;5033955;28;20055;-74
2022/10/19 14:37:20;;;;;;;4.65;1.27;;;;;;;;;;5034515;28;20496;-72
2022/10/19 14:40:03;;;;;;;6.90;1.45;;;;;;;;;;5018035;28;20022;-73
2022/10/19 14:42:43;;;;;;;5.97;1.13;;;;;;;;;;5035234;28;20033;-75
2022/10/19 14:45:20;;;;;;;4.30;0.80;;;;;;;;;;5033911;28;20036;-73
2022/10/19 14:47:59;;;;;;;8.65;1.60;;;;;;;;;;5035200;28;20056;-73